createdAt,value
2023-01-25T00:00:53.128Z,46.78
2023-01-25T00:02:13.932Z,47.53
2023-01-25T00:03:34.537Z,46.45
2023-01-25T00:04:55.139Z,48.80
2023-01-25T00:06:16.172Z,45.75
2023-01-25T00:07:36.855Z,44.55
2023-01-25T00:08:58.735Z,47.13
2023-01-25T00:10:20.228Z,45.22
2023-01-25T00:11:41.220Z,44.25
2023-01-25T00:13:01.496Z,42.85
2023-01-25T00:14:22.405Z,48.50
2023-01-25T00:15:43.074Z,43.63
2023-01-25T00:17:03.875Z,44.08
2023-01-25T00:18:24.659Z,44.60
2023-01-25T00:19:45.477Z,46.38
2023-01-25T00:21:13.229Z,45.05
2023-01-25T00:22:33.855Z,44.95
2023-01-25T00:23:54.801Z,45.70
2023-01-25T00:25:16.920Z,45.10
2023-01-25T00:26:37.704Z,43.83
2023-01-25T00:27:58.335Z,47.08
2023-01-25T00:29:19.134Z,43.50
2023-01-25T00:30:39.548Z,45.73
2023-01-25T00:32:08.120Z,46.40
2023-01-25T00:33:35.259Z,44.65
2023-01-25T00:34:56.023Z,45.47
2023-01-25T00:36:30.749Z,44.08
2023-01-25T00:37:53.206Z,45.95
2023-01-25T00:39:14.191Z,45.10
2023-01-25T00:40:36.300Z,44.47
2023-01-25T00:41:57.182Z,44.97
2023-01-25T00:43:17.558Z,45.58
2023-01-25T00:44:38.597Z,44.83
2023-01-25T00:46:00.844Z,47.25
2023-01-25T00:47:21.656Z,44.58
2023-01-25T00:48:42.181Z,45.88
2023-01-25T00:50:02.893Z,45.23
2023-01-25T00:51:24.208Z,44.70
2023-01-25T00:52:44.793Z,45.17
2023-01-25T00:54:05.472Z,47.22
2023-01-25T00:55:26.274Z,45.80
2023-01-25T00:56:48.743Z,47.15
2023-01-25T00:58:08.988Z,47.35
2023-01-25T00:59:29.578Z,47.78
2023-01-25T01:00:52.216Z,47.17
2023-01-25T01:02:13.647Z,48.60
2023-01-25T01:03:34.106Z,47.55
2023-01-25T01:04:54.852Z,49.28
2023-01-25T01:06:15.380Z,48.47
2023-01-25T01:07:35.969Z,51.13
2023-01-25T01:08:56.828Z,48.45
2023-01-25T01:10:17.454Z,46.00
2023-01-25T01:13:00.546Z,48.80
2023-01-25T01:14:22.680Z,50.20
2023-01-25T01:15:43.221Z,48.38
2023-01-25T01:17:03.887Z,47.57
2023-01-25T01:18:24.681Z,47.03
2023-01-25T01:19:45.446Z,46.53
2023-01-25T01:21:07.611Z,45.15
2023-01-25T01:22:28.383Z,47.38
2023-01-25T01:23:49.480Z,46.90
2023-01-25T01:25:10.470Z,48.80
2023-01-25T01:26:31.221Z,45.78
2023-01-25T01:27:51.656Z,45.92
2023-01-25T01:29:13.842Z,47.38
2023-01-25T01:30:34.509Z,48.33
2023-01-25T01:31:55.218Z,47.33
2023-01-25T01:33:16.094Z,46.47
2023-01-25T01:34:36.986Z,47.13
2023-01-25T01:35:57.822Z,49.20
2023-01-25T01:37:18.526Z,48.53
2023-01-25T01:38:39.282Z,50.33
2023-01-25T01:40:00.170Z,49.85
2023-01-25T01:41:21.190Z,47.95
2023-01-25T01:42:57.105Z,47.58
2023-01-25T01:44:21.048Z,48.13
2023-01-25T01:45:53.046Z,48.28
2023-01-25T01:47:16.000Z,47.97
2023-01-25T01:48:40.074Z,46.63
2023-01-25T01:50:03.921Z,50.33
2023-01-25T01:51:28.225Z,49.55
2023-01-25T01:52:49.107Z,48.38
2023-01-25T01:54:12.684Z,46.20
2023-01-25T01:55:34.008Z,47.63
2023-01-25T01:56:57.648Z,48.45
2023-01-25T01:58:18.552Z,48.38
2023-01-25T01:59:44.542Z,47.53
2023-01-25T02:01:05.526Z,49.40
2023-01-25T02:02:26.508Z,51.58
2023-01-25T02:03:47.972Z,51.13
2023-01-25T02:05:12.539Z,51.28
2023-01-25T02:06:40.002Z,49.25
2023-01-25T02:08:00.997Z,48.17
2023-01-25T02:09:23.906Z,49.53
2023-01-25T02:10:44.847Z,47.78
2023-01-25T02:12:06.875Z,48.63
2023-01-25T02:13:27.745Z,47.63
2023-01-25T02:14:51.457Z,50.05
2023-01-25T02:16:15.298Z,49.10
2023-01-25T02:17:37.748Z,49.85
2023-01-25T02:18:59.344Z,49.70
2023-01-25T02:20:23.585Z,51.67
2023-01-25T02:21:46.239Z,51.72
2023-01-25T02:23:11.866Z,50.75
2023-01-25T02:24:32.995Z,50.22
2023-01-25T02:25:55.319Z,52.63
2023-01-25T02:27:16.308Z,51.28
2023-01-25T02:28:39.859Z,52.08
2023-01-25T02:30:00.767Z,52.35
2023-01-25T02:31:21.498Z,52.58
2023-01-25T02:32:41.879Z,51.83
2023-01-25T02:34:02.560Z,50.65
2023-01-25T02:35:25.667Z,52.88
2023-01-25T02:36:46.100Z,50.13
2023-01-25T02:38:07.512Z,50.42
2023-01-25T02:39:28.034Z,50.63
2023-01-25T02:40:51.179Z,48.42
2023-01-25T02:42:13.040Z,50.05
2023-01-25T02:43:34.467Z,49.10
2023-01-25T02:44:54.851Z,51.00
2023-01-25T02:46:20.629Z,50.78
2023-01-25T02:47:41.061Z,52.30
2023-01-25T02:49:02.398Z,48.80
2023-01-25T02:50:23.670Z,50.97
2023-01-25T02:51:46.141Z,49.38
2023-01-25T02:53:06.601Z,49.20
2023-01-25T02:54:27.306Z,48.93
2023-01-25T02:55:47.807Z,50.13
2023-01-25T02:57:08.606Z,51.15
2023-01-25T02:58:30.628Z,50.22
2023-01-25T02:59:51.410Z,51.47
2023-01-25T03:01:13.207Z,50.75
2023-01-25T03:02:33.850Z,50.40
2023-01-25T03:03:54.599Z,50.22
2023-01-25T03:05:15.319Z,49.67
2023-01-25T03:06:36.886Z,52.93
2023-01-25T03:09:17.845Z,50.33
2023-01-25T03:10:39.043Z,52.45
2023-01-25T03:11:59.733Z,54.35
2023-01-25T03:13:20.230Z,50.90
2023-01-25T03:14:42.539Z,51.17
2023-01-25T03:16:04.864Z,51.80
2023-01-25T03:17:25.371Z,48.22
2023-01-25T03:18:46.039Z,52.28
2023-01-25T03:20:07.566Z,49.42
2023-01-25T03:21:28.465Z,49.90
2023-01-25T03:22:49.252Z,49.95
2023-01-25T03:24:10.380Z,49.35
2023-01-25T03:25:30.729Z,50.07
2023-01-25T03:26:51.312Z,51.15
2023-01-25T03:28:12.192Z,50.40
2023-01-25T03:29:33.168Z,47.95
2023-01-25T03:30:55.288Z,48.97
2023-01-25T03:32:15.995Z,49.97
2023-01-25T03:33:36.552Z,49.03
2023-01-25T03:34:56.974Z,50.28
2023-01-25T03:36:17.548Z,49.72
2023-01-25T03:37:38.454Z,50.30
2023-01-25T03:38:59.299Z,49.90
2023-01-25T03:40:20.282Z,50.50
2023-01-25T03:41:40.963Z,48.90
2023-01-25T03:43:02.483Z,49.97
2023-01-25T03:44:23.006Z,48.67
2023-01-25T03:45:43.752Z,49.25
2023-01-25T03:47:05.788Z,47.47
2023-01-25T03:48:27.478Z,50.45
2023-01-25T03:51:08.862Z,48.17
2023-01-25T03:53:18.050Z,47.45
2023-01-25T03:54:38.944Z,48.10
2023-01-25T03:56:01.547Z,48.25
2023-01-25T03:57:21.877Z,49.15
2023-01-25T03:58:42.574Z,51.08
2023-01-25T04:00:04.892Z,51.35
2023-01-25T04:01:25.686Z,50.97
2023-01-25T04:02:47.767Z,50.05
2023-01-25T04:04:08.140Z,48.60
2023-01-25T04:05:28.865Z,50.45
2023-01-25T04:06:49.650Z,51.53
2023-01-25T04:08:10.231Z,52.70
2023-01-25T04:09:30.940Z,48.67
2023-01-25T04:10:51.646Z,50.38
2023-01-25T04:12:12.270Z,51.35
2023-01-25T04:13:33.849Z,53.13
2023-01-25T04:14:54.413Z,50.47
2023-01-25T04:16:14.904Z,52.38
2023-01-25T04:17:35.498Z,51.97
2023-01-25T04:18:57.914Z,53.42
2023-01-25T04:20:18.629Z,51.83
2023-01-25T04:21:39.277Z,51.75
2023-01-25T04:23:00.003Z,50.22
2023-01-25T04:24:20.790Z,52.63
2023-01-25T04:25:41.592Z,54.30
2023-01-25T04:27:02.155Z,54.05
2023-01-25T04:28:23.317Z,53.33
2023-01-25T04:29:43.557Z,50.45
2023-01-25T04:31:04.333Z,53.50
2023-01-25T04:32:24.830Z,52.13
2023-01-25T04:33:45.336Z,52.37
2023-01-25T04:35:08.432Z,49.90
2023-01-25T04:36:29.132Z,51.72
2023-01-25T04:37:54.014Z,52.60
2023-01-25T04:39:14.370Z,51.63
2023-01-25T04:40:34.801Z,51.88
2023-01-25T04:41:55.389Z,55.50
2023-01-25T04:43:16.905Z,53.42
2023-01-25T04:44:37.274Z,54.47
2023-01-25T04:45:57.849Z,51.90
2023-01-25T04:47:18.208Z,53.90
2023-01-25T04:48:38.830Z,52.70
2023-01-25T04:49:59.769Z,53.83
2023-01-25T04:51:22.008Z,53.65
2023-01-25T04:52:43.943Z,52.75
2023-01-25T04:54:04.318Z,54.25
2023-01-25T04:55:25.161Z,53.30
2023-01-25T04:56:45.881Z,57.22
2023-01-25T04:58:06.577Z,53.67
2023-01-25T04:59:26.955Z,53.65
2023-01-25T05:00:47.799Z,56.20
2023-01-25T05:02:08.466Z,55.40
2023-01-25T05:03:29.228Z,55.78
2023-01-25T05:04:49.911Z,56.28
2023-01-25T05:06:10.820Z,57.00
2023-01-25T05:07:32.829Z,56.35
2023-01-25T05:08:53.218Z,56.60
2023-01-25T05:10:14.118Z,58.70
2023-01-25T05:11:34.547Z,56.58
2023-01-25T05:12:55.007Z,56.03
2023-01-25T05:14:16.079Z,57.78
2023-01-25T05:15:36.611Z,57.80
2023-01-25T05:16:57.173Z,55.45
2023-01-25T05:18:17.769Z,54.40
2023-01-25T05:19:38.521Z,58.08
2023-01-25T05:20:59.370Z,59.50
2023-01-25T05:22:20.063Z,57.67
2023-01-25T05:23:42.225Z,57.63
2023-01-25T05:25:03.059Z,58.15
2023-01-25T05:26:24.013Z,55.78
2023-01-25T05:27:44.918Z,57.13
2023-01-25T05:29:05.732Z,55.65
2023-01-25T05:30:26.334Z,57.53
2023-01-25T05:31:47.096Z,56.13
2023-01-25T05:33:07.761Z,56.88
2023-01-25T05:34:28.575Z,57.25
2023-01-25T05:35:49.226Z,58.45
2023-01-25T05:37:11.327Z,55.20
2023-01-25T05:38:31.844Z,55.55
2023-01-25T05:39:53.852Z,56.78
2023-01-25T05:41:15.120Z,56.60
2023-01-25T05:42:35.951Z,58.25
2023-01-25T05:43:56.844Z,55.10
2023-01-25T05:45:17.761Z,56.75
2023-01-25T05:46:38.521Z,56.90
2023-01-25T05:47:59.805Z,56.47
2023-01-25T05:49:20.205Z,55.10
2023-01-25T05:50:41.042Z,56.03
2023-01-25T05:52:01.570Z,58.67
2023-01-25T05:53:25.323Z,59.58
2023-01-25T05:54:45.757Z,58.78
2023-01-25T05:56:09.518Z,57.38
2023-01-25T05:57:30.279Z,57.60
2023-01-25T05:58:53.508Z,60.58
2023-01-25T06:00:14.831Z,59.95
2023-01-25T06:01:35.247Z,60.90
2023-01-25T06:02:56.096Z,55.90
2023-01-25T06:04:17.277Z,58.30
2023-01-25T06:05:37.633Z,57.22
2023-01-25T06:06:58.685Z,57.35
2023-01-25T06:08:19.044Z,57.87
2023-01-25T06:09:39.799Z,56.08
2023-01-25T06:11:08.159Z,57.65
2023-01-25T06:12:29.601Z,53.83
2023-01-25T06:13:51.201Z,56.45
2023-01-25T06:15:12.096Z,60.13
2023-01-25T06:16:32.594Z,56.95
2023-01-25T06:17:55.043Z,56.17
2023-01-25T06:19:15.526Z,57.55
2023-01-25T06:20:36.049Z,57.10
2023-01-25T06:21:56.805Z,56.40
2023-01-25T06:23:17.503Z,58.67
2023-01-25T06:24:38.169Z,57.03
2023-01-25T06:25:58.930Z,58.63
2023-01-25T06:27:20.813Z,58.70
2023-01-25T06:28:41.889Z,58.28
2023-01-25T06:30:02.146Z,59.00
2023-01-25T06:31:22.909Z,59.75
2023-01-25T06:32:43.520Z,59.15
2023-01-25T06:34:04.043Z,59.28
2023-01-25T06:35:24.935Z,59.47
2023-01-25T06:36:45.351Z,57.70
2023-01-25T06:38:06.392Z,58.58
2023-01-25T06:39:27.116Z,60.38
2023-01-25T06:40:47.795Z,58.65
2023-01-25T06:42:08.436Z,57.15
2023-01-25T06:43:31.365Z,57.43
2023-01-25T06:44:52.098Z,58.55
2023-01-25T06:46:12.809Z,60.63
2023-01-25T06:47:33.338Z,58.85
2023-01-25T06:48:53.955Z,59.75
2023-01-25T06:50:15.042Z,60.03
2023-01-25T06:51:35.651Z,61.40
2023-01-25T06:52:56.590Z,61.03
2023-01-25T06:54:16.948Z,60.78
2023-01-25T06:55:37.662Z,58.95
2023-01-25T06:56:58.208Z,59.37
2023-01-25T06:58:18.713Z,59.63
2023-01-25T06:59:40.626Z,63.72
2023-01-25T07:01:02.830Z,62.03
2023-01-25T07:02:23.587Z,61.85
2023-01-25T07:03:44.212Z,58.22
2023-01-25T07:05:04.931Z,66.53
2023-01-25T07:06:29.113Z,63.13
2023-01-25T07:07:49.518Z,63.25
2023-01-25T07:09:11.853Z,62.72
2023-01-25T07:10:33.885Z,60.63
2023-01-25T07:11:54.630Z,61.17
2023-01-25T07:13:15.492Z,62.40
2023-01-25T07:14:36.081Z,61.97
2023-01-25T07:15:59.250Z,63.72
2023-01-25T07:17:19.851Z,62.65
2023-01-25T07:18:40.577Z,62.65
2023-01-25T07:20:01.376Z,63.22
2023-01-25T07:21:23.507Z,61.35
2023-01-25T07:22:44.233Z,58.88
2023-01-25T07:24:05.699Z,62.47
2023-01-25T07:26:46.752Z,59.25
2023-01-25T07:28:07.153Z,63.65
2023-01-25T07:29:27.901Z,63.15
2023-01-25T07:30:48.391Z,62.22
2023-01-25T07:32:12.451Z,62.13
2023-01-25T07:33:33.205Z,64.47
2023-01-25T07:34:53.707Z,65.97
2023-01-25T07:36:14.063Z,66.65
2023-01-25T07:37:34.494Z,64.35
2023-01-25T07:38:55.554Z,63.83
2023-01-25T07:40:16.436Z,62.92
2023-01-25T07:41:36.779Z,65.72
2023-01-25T07:42:57.221Z,64.63
2023-01-25T07:44:17.751Z,62.50
2023-01-25T07:45:38.121Z,63.00
2023-01-25T07:46:58.750Z,63.70
2023-01-25T07:48:21.066Z,62.10
2023-01-25T07:49:41.730Z,62.80
2023-01-25T07:51:03.944Z,62.38
2023-01-25T07:52:24.333Z,60.40
2023-01-25T07:53:44.953Z,56.67
2023-01-25T07:55:06.064Z,62.33
2023-01-25T07:56:29.819Z,58.35
2023-01-25T07:57:54.349Z,61.47
2023-01-25T07:59:14.581Z,61.35
2023-01-25T08:00:35.178Z,57.70
2023-01-25T08:01:55.727Z,58.80
2023-01-25T08:03:16.125Z,59.00
2023-01-25T08:04:38.118Z,59.47
2023-01-25T08:05:58.821Z,63.10
2023-01-25T08:07:19.441Z,67.85
2023-01-25T08:08:41.778Z,66.35
2023-01-25T08:10:02.380Z,62.22
2023-01-25T08:11:24.077Z,61.33
2023-01-25T08:12:45.536Z,56.72
2023-01-25T08:14:05.919Z,62.13
2023-01-25T08:15:26.683Z,61.33
2023-01-25T08:16:47.268Z,61.07
2023-01-25T08:18:08.125Z,65.03
2023-01-25T08:19:28.783Z,61.17
2023-01-25T08:20:50.508Z,65.03
2023-01-25T08:22:11.075Z,61.28
2023-01-25T08:23:31.745Z,64.63
2023-01-25T08:24:52.074Z,61.13
2023-01-25T08:26:15.414Z,64.32
2023-01-25T08:27:36.570Z,60.97
2023-01-25T08:28:57.185Z,61.80
2023-01-25T08:30:18.092Z,62.33
2023-01-25T08:31:41.402Z,58.33
2023-01-25T08:33:01.688Z,62.35
2023-01-25T08:34:22.081Z,65.20
2023-01-25T08:35:42.798Z,61.63
2023-01-25T08:37:04.986Z,64.50
2023-01-25T08:38:25.759Z,59.78
2023-01-25T08:39:46.557Z,60.30
2023-01-25T08:41:08.129Z,59.28
2023-01-25T08:43:48.681Z,57.40
2023-01-25T08:45:10.400Z,58.40
2023-01-25T08:46:32.405Z,58.72
2023-01-25T08:47:53.021Z,59.35
2023-01-25T08:49:13.875Z,59.20
2023-01-25T08:50:34.647Z,56.78
2023-01-25T08:51:55.592Z,66.13
2023-01-25T08:53:17.590Z,63.10
2023-01-25T08:54:38.387Z,64.43
2023-01-25T08:57:23.517Z,60.30
2023-01-25T08:58:46.837Z,61.35
2023-01-25T09:00:09.451Z,66.10
2023-01-25T09:01:30.156Z,61.42
2023-01-25T09:02:50.899Z,61.28
2023-01-25T09:04:11.696Z,63.85
2023-01-25T09:05:33.890Z,60.13
2023-01-25T09:06:54.757Z,64.00
2023-01-25T09:08:16.726Z,60.85
2023-01-25T09:09:37.378Z,61.80
2023-01-25T09:11:01.150Z,62.15
2023-01-25T09:12:21.852Z,63.25
2023-01-25T09:13:42.797Z,62.20
2023-01-25T09:15:03.533Z,64.63
2023-01-25T09:16:25.309Z,58.53
2023-01-25T09:17:45.719Z,60.50
2023-01-25T09:19:06.451Z,63.00
2023-01-25T09:20:27.078Z,60.55
2023-01-25T09:21:48.317Z,64.82
2023-01-25T09:23:08.986Z,61.20
2023-01-25T09:24:31.188Z,62.78
2023-01-25T09:25:57.135Z,61.90
2023-01-25T09:27:17.885Z,60.75
2023-01-25T09:28:38.648Z,59.13
2023-01-25T09:30:13.713Z,60.75
2023-01-25T09:31:39.619Z,64.15
2023-01-25T09:33:00.530Z,60.90
2023-01-25T09:34:21.191Z,60.88
2023-01-25T09:35:48.054Z,64.90
2023-01-25T09:37:08.576Z,61.67
2023-01-25T09:38:29.417Z,66.85
2023-01-25T09:39:51.528Z,66.20
2023-01-25T09:41:25.533Z,61.85
2023-01-25T09:42:56.743Z,64.15
2023-01-25T09:44:28.346Z,60.58
2023-01-25T09:45:49.057Z,63.42
2023-01-25T09:47:13.766Z,65.80
2023-01-25T09:48:38.551Z,62.38
2023-01-25T09:50:30.562Z,60.15
2023-01-25T09:52:02.636Z,61.42
2023-01-25T09:53:28.170Z,63.60
2023-01-25T09:54:49.014Z,63.08
2023-01-25T09:56:13.483Z,58.88
2023-01-25T09:57:37.118Z,59.53
2023-01-25T09:58:59.854Z,63.45
2023-01-25T10:00:23.327Z,60.38
2023-01-25T10:01:47.521Z,58.80
2023-01-25T10:03:13.623Z,60.58
2023-01-25T10:04:37.759Z,60.80
2023-01-25T10:05:59.785Z,60.90
2023-01-25T10:07:25.468Z,59.83
2023-01-25T10:08:53.059Z,59.35
2023-01-25T10:10:17.901Z,58.33
2023-01-25T10:11:40.302Z,58.78
2023-01-25T10:13:00.779Z,59.20
2023-01-25T10:14:21.161Z,61.60
2023-01-25T10:15:44.779Z,59.80
2023-01-25T10:17:09.577Z,61.38
2023-01-25T10:18:34.597Z,60.25
2023-01-25T10:20:08.529Z,57.10
2023-01-25T10:21:32.479Z,59.38
2023-01-25T10:22:59.585Z,59.90
2023-01-25T10:24:31.520Z,58.80
2023-01-25T10:25:57.238Z,58.53
2023-01-25T10:27:26.799Z,59.95
2023-01-25T10:28:52.967Z,58.83
2023-01-25T10:30:32.276Z,55.42
2023-01-25T10:31:54.569Z,57.33
2023-01-25T10:33:17.263Z,59.67
2023-01-25T10:34:55.336Z,54.83
2023-01-25T10:36:19.305Z,54.97
2023-01-25T10:37:40.019Z,55.50
2023-01-25T10:39:00.659Z,59.40
2023-01-25T10:40:23.251Z,56.72
2023-01-25T10:41:48.049Z,58.65
2023-01-25T10:43:15.853Z,56.25
2023-01-25T10:44:35.695Z,58.83
2023-01-25T10:45:56.360Z,54.20
2023-01-25T10:47:19.511Z,61.05
2023-01-25T10:48:40.671Z,58.63
2023-01-25T10:50:01.606Z,58.40
2023-01-25T10:51:33.074Z,54.40
2023-01-25T10:54:18.641Z,54.30
2023-01-25T10:55:57.583Z,60.05
2023-01-25T10:57:20.575Z,60.80
2023-01-25T10:58:43.932Z,58.65
2023-01-25T11:00:07.017Z,59.97
2023-01-25T11:01:30.521Z,58.47
2023-01-25T11:02:51.858Z,60.47
2023-01-25T11:04:33.416Z,60.20
2023-01-25T11:05:55.325Z,59.47
2023-01-25T11:07:26.712Z,58.15
2023-01-25T11:10:28.149Z,58.78
2023-01-25T11:11:57.310Z,59.20
2023-01-25T11:13:25.012Z,63.20
2023-01-25T11:14:52.995Z,64.05
2023-01-25T11:16:22.388Z,62.13
2023-01-25T11:17:43.667Z,62.00
2023-01-25T11:19:25.763Z,60.35
2023-01-25T11:20:46.977Z,61.13
2023-01-25T11:22:22.735Z,62.63
2023-01-25T11:23:49.071Z,57.95
2023-01-25T11:25:26.361Z,61.53
2023-01-25T11:26:47.117Z,61.53
2023-01-25T11:28:12.308Z,65.10
2023-01-25T11:29:33.719Z,64.95
2023-01-25T11:30:56.694Z,62.30
2023-01-25T11:32:19.601Z,63.42
2023-01-25T11:33:43.958Z,65.53
2023-01-25T11:35:13.792Z,64.53
2023-01-25T11:36:52.190Z,65.22
2023-01-25T11:38:15.492Z,67.35
2023-01-25T11:39:45.096Z,68.90
2023-01-25T11:41:11.885Z,69.00
2023-01-25T11:42:45.494Z,67.57
2023-01-25T11:44:50.003Z,62.28
2023-01-25T11:46:31.127Z,62.00
2023-01-25T11:48:02.001Z,64.00
2023-01-25T11:49:36.265Z,63.38
2023-01-25T11:51:07.869Z,64.13
2023-01-25T11:52:51.809Z,64.05
2023-01-25T11:54:39.635Z,58.28
2023-01-25T11:56:10.578Z,60.17
2023-01-25T11:57:49.807Z,58.20
2023-01-25T11:59:23.492Z,63.40
2023-01-25T12:00:55.129Z,62.22
2023-01-25T12:02:46.847Z,64.90
2023-01-25T12:04:38.487Z,59.33
2023-01-25T12:06:02.674Z,61.38
2023-01-25T12:07:30.602Z,64.75
2023-01-25T12:09:09.557Z,64.40
2023-01-25T12:10:40.798Z,67.75
2023-01-25T12:12:10.171Z,66.80
2023-01-25T12:13:41.316Z,65.35
2023-01-25T12:15:22.997Z,66.35
2023-01-25T12:16:57.387Z,66.00
2023-01-25T12:18:42.075Z,68.20
2023-01-25T12:20:19.062Z,66.65
2023-01-25T12:21:51.184Z,65.55
2023-01-25T12:23:22.435Z,63.83
2023-01-25T12:24:50.943Z,66.43
2023-01-25T12:26:21.305Z,64.65
2023-01-25T12:28:05.341Z,66.63
2023-01-25T12:29:34.559Z,59.95
2023-01-25T12:31:00.449Z,65.35
2023-01-25T12:32:31.632Z,65.38
2023-01-25T12:33:58.300Z,62.45
2023-01-25T12:35:28.666Z,63.75
2023-01-25T12:36:58.188Z,66.05
2023-01-25T12:38:25.683Z,61.58
2023-01-25T12:39:54.000Z,61.60
2023-01-25T12:41:23.704Z,59.55
2023-01-25T12:42:50.561Z,61.95
2023-01-25T12:44:17.173Z,59.10
2023-01-25T12:45:39.300Z,57.95
2023-01-25T12:47:05.007Z,60.33
2023-01-25T12:48:28.660Z,59.47
2023-01-25T12:49:53.170Z,59.67
2023-01-25T12:51:17.217Z,58.35
2023-01-25T12:52:42.740Z,57.75
2023-01-25T12:54:07.642Z,60.55
2023-01-25T12:55:28.949Z,56.03
2023-01-25T12:56:56.525Z,59.53
2023-01-25T12:58:38.268Z,60.20
2023-01-25T13:00:13.096Z,56.55
2023-01-25T13:01:38.436Z,58.70
2023-01-25T13:03:11.536Z,58.63
2023-01-25T13:04:45.660Z,58.88
2023-01-25T13:06:15.897Z,60.00
2023-01-25T13:07:50.799Z,58.08
2023-01-25T13:09:18.943Z,58.88
2023-01-25T13:10:46.042Z,54.50
2023-01-25T13:12:11.700Z,54.00
2023-01-25T13:13:35.228Z,53.78
2023-01-25T13:14:56.227Z,58.25
2023-01-25T13:16:32.098Z,57.35
2023-01-25T13:17:53.535Z,54.38
2023-01-25T13:19:22.838Z,55.92
2023-01-25T13:20:49.448Z,55.25
2023-01-25T13:22:14.321Z,56.60
2023-01-25T13:23:36.495Z,57.58
2023-01-25T13:25:20.459Z,55.55
2023-01-25T13:27:06.127Z,56.08
2023-01-25T13:28:44.959Z,58.08
2023-01-25T13:30:25.771Z,56.75
2023-01-25T13:31:51.902Z,53.65
2023-01-25T13:33:32.731Z,59.58
2023-01-25T13:35:00.651Z,56.67
2023-01-25T13:36:43.728Z,59.20
2023-01-25T13:38:29.310Z,57.47
2023-01-25T13:39:51.769Z,58.17
2023-01-25T13:41:15.819Z,55.75
2023-01-25T13:42:37.479Z,61.70
2023-01-25T13:44:20.073Z,59.45
2023-01-25T13:45:41.875Z,58.42
2023-01-25T13:47:04.799Z,61.45
2023-01-25T13:48:29.148Z,59.67
2023-01-25T13:50:03.762Z,55.33
2023-01-25T13:51:25.442Z,60.75
2023-01-25T13:52:57.155Z,62.72
2023-01-25T13:54:19.531Z,59.05
2023-01-25T13:55:42.187Z,59.90
2023-01-25T13:57:03.998Z,56.88
2023-01-25T13:58:26.333Z,58.63
2023-01-25T13:59:52.280Z,60.20
2023-01-25T14:01:18.330Z,58.67
2023-01-25T14:02:39.877Z,58.50
2023-01-25T14:04:03.535Z,59.53
2023-01-25T14:05:25.550Z,58.63
2023-01-25T14:06:55.118Z,55.92
2023-01-25T14:08:18.447Z,55.65
2023-01-25T14:09:42.898Z,54.72
2023-01-25T14:11:03.616Z,53.42
2023-01-25T14:12:32.366Z,56.38
2023-01-25T14:13:59.967Z,53.90
2023-01-25T14:15:23.564Z,51.50
2023-01-25T14:16:45.601Z,53.83
2023-01-25T14:18:14.180Z,51.38
2023-01-25T14:19:37.326Z,50.65
2023-01-25T14:21:13.260Z,51.88
2023-01-25T14:22:34.912Z,52.42
2023-01-25T14:24:09.800Z,51.97
2023-01-25T14:25:33.459Z,52.83
2023-01-25T14:26:54.638Z,54.28
2023-01-25T14:28:16.290Z,50.45
2023-01-25T14:30:59.244Z,53.38
2023-01-25T14:32:25.391Z,49.97
2023-01-25T14:33:46.311Z,51.13
2023-01-25T14:35:49.330Z,54.35
2023-01-25T14:37:16.633Z,54.63
2023-01-25T14:38:38.928Z,52.03
2023-01-25T14:40:00.186Z,51.50
2023-01-25T14:41:26.585Z,53.83
2023-01-25T14:42:47.424Z,52.28
2023-01-25T14:44:13.232Z,55.17
2023-01-25T14:45:34.544Z,55.90
2023-01-25T14:47:21.444Z,55.53
2023-01-25T14:48:45.086Z,56.63
2023-01-25T14:50:34.151Z,56.15
2023-01-25T14:51:59.591Z,57.55
2023-01-25T14:53:21.892Z,61.88
2023-01-25T14:54:47.875Z,55.45
2023-01-25T14:56:27.072Z,58.35
2023-01-25T14:57:48.228Z,58.60
2023-01-25T14:59:26.177Z,55.42
2023-01-25T15:00:52.484Z,58.83
2023-01-25T15:02:19.440Z,57.85
2023-01-25T15:03:43.767Z,58.22
2023-01-25T15:05:15.264Z,56.55
2023-01-25T15:06:48.161Z,54.75
2023-01-25T15:08:16.575Z,54.83
2023-01-25T15:09:39.604Z,55.80
2023-01-25T15:11:02.878Z,54.25
2023-01-25T15:12:29.534Z,55.33
2023-01-25T15:14:01.224Z,54.28
2023-01-25T15:16:43.734Z,53.05
2023-01-25T15:18:04.746Z,53.67
2023-01-25T15:19:27.977Z,53.30
2023-01-25T15:20:48.622Z,55.28
2023-01-25T15:22:10.692Z,55.28
2023-01-25T15:23:31.766Z,53.53
2023-01-25T15:26:25.000Z,51.83
2023-01-25T15:27:48.092Z,55.10
2023-01-25T15:29:16.154Z,52.63
2023-01-25T15:30:37.408Z,52.28
2023-01-25T15:33:21.159Z,50.78
2023-01-25T15:34:44.430Z,54.30
2023-01-25T15:36:07.562Z,52.33
2023-01-25T15:37:28.629Z,53.03
2023-01-25T15:38:49.230Z,53.15
2023-01-25T15:40:12.242Z,54.03
2023-01-25T15:41:33.274Z,51.85
2023-01-25T15:42:56.009Z,54.90
2023-01-25T15:44:17.020Z,50.90
2023-01-25T15:45:37.966Z,52.65
2023-01-25T15:46:59.391Z,54.13
2023-01-25T15:48:28.068Z,52.08
2023-01-25T15:49:49.133Z,52.28
2023-01-25T15:51:11.952Z,52.67
2023-01-25T15:52:32.898Z,54.35
2023-01-25T15:53:53.467Z,51.47
2023-01-25T15:55:14.648Z,52.28
2023-01-25T15:56:36.466Z,52.78
2023-01-25T15:57:59.108Z,57.75
2023-01-25T15:59:20.303Z,55.55
2023-01-25T16:00:50.131Z,58.20
2023-01-25T16:02:12.297Z,54.90
2023-01-25T16:03:33.314Z,55.15
2023-01-25T16:04:54.282Z,54.05
2023-01-25T16:06:27.418Z,56.33
2023-01-25T16:07:48.085Z,57.30
2023-01-25T16:09:21.144Z,57.78
2023-01-25T16:10:45.253Z,57.35
2023-01-25T16:12:09.180Z,59.67
2023-01-25T16:13:31.510Z,60.35
2023-01-25T16:14:55.589Z,61.63
2023-01-25T16:16:21.713Z,60.13
2023-01-25T16:17:42.551Z,62.33
2023-01-25T16:19:03.643Z,63.67
2023-01-25T16:20:24.884Z,64.20
2023-01-25T16:21:45.559Z,61.42
2023-01-25T16:23:06.163Z,62.20
2023-01-25T16:24:27.073Z,63.40
2023-01-25T16:25:48.579Z,63.13
2023-01-25T16:27:15.144Z,63.45
2023-01-25T16:28:39.195Z,61.78
2023-01-25T16:30:03.114Z,63.85
2023-01-25T16:31:32.955Z,65.70
2023-01-25T16:32:58.344Z,64.53
2023-01-25T16:34:19.388Z,63.20
2023-01-25T16:35:40.292Z,64.93
2023-01-25T16:37:06.038Z,64.88
2023-01-25T16:38:26.894Z,66.82
2023-01-25T16:39:47.672Z,66.60
2023-01-25T16:41:08.863Z,63.97
2023-01-25T16:43:52.385Z,64.90
2023-01-25T16:45:21.015Z,65.85
2023-01-25T16:46:46.235Z,63.00
2023-01-25T16:48:19.062Z,65.72
2023-01-25T16:49:41.287Z,65.47
2023-01-25T16:51:02.984Z,67.35
2023-01-25T16:52:26.947Z,67.85
2023-01-25T16:53:59.294Z,66.30
2023-01-25T16:55:34.079Z,68.38
2023-01-25T16:56:55.712Z,65.28
2023-01-25T16:59:40.189Z,64.68
2023-01-25T17:01:10.917Z,68.28
2023-01-25T17:02:32.752Z,66.78
2023-01-25T17:03:57.279Z,67.70
2023-01-25T17:05:21.436Z,70.90
2023-01-25T17:06:44.465Z,72.05
2023-01-25T17:08:06.025Z,69.03
2023-01-25T17:09:36.325Z,69.82
2023-01-25T17:10:59.353Z,67.88
2023-01-25T17:12:22.549Z,66.22
2023-01-25T17:13:47.965Z,72.22
2023-01-25T17:15:18.628Z,72.07
2023-01-25T17:16:44.400Z,73.00
2023-01-25T17:18:05.844Z,71.75
2023-01-25T17:21:01.453Z,70.55
2023-01-25T17:22:22.855Z,71.32
2023-01-25T17:23:58.502Z,73.20
2023-01-25T17:25:20.631Z,72.93
2023-01-25T17:26:43.776Z,75.45
2023-01-25T17:28:09.321Z,76.30
2023-01-25T17:29:38.630Z,75.22
2023-01-25T17:31:04.893Z,80.13
2023-01-25T17:32:35.062Z,82.38
2023-01-25T17:34:24.489Z,79.90
2023-01-25T17:36:02.707Z,79.40
2023-01-25T17:37:34.234Z,79.97
2023-01-25T17:38:55.271Z,83.10
2023-01-25T17:40:17.252Z,83.47
2023-01-25T17:41:38.646Z,84.75
2023-01-25T17:42:59.781Z,82.80
2023-01-25T17:44:26.468Z,84.70
2023-01-25T17:45:50.041Z,85.03
2023-01-25T17:47:14.857Z,85.32
2023-01-25T17:48:36.032Z,86.57
2023-01-25T17:49:57.142Z,86.78
2023-01-25T17:52:39.814Z,79.15
2023-01-25T17:54:01.216Z,86.18
2023-01-25T17:55:22.268Z,87.93
2023-01-25T17:56:43.783Z,87.88
2023-01-25T17:58:04.872Z,86.88
2023-01-25T18:00:52.422Z,86.15
2023-01-25T18:02:16.775Z,84.15
2023-01-25T18:03:57.788Z,82.90
2023-01-25T18:05:44.461Z,83.47
2023-01-25T18:07:15.032Z,86.45
2023-01-25T18:08:58.586Z,84.20
2023-01-25T18:10:20.120Z,86.22
2023-01-25T18:11:42.969Z,89.07
2023-01-25T18:13:05.206Z,90.28
2023-01-25T18:14:29.313Z,87.25
2023-01-25T18:15:57.337Z,86.53
2023-01-25T18:17:25.521Z,84.22
2023-01-25T18:19:37.992Z,85.47
2023-01-25T18:21:29.373Z,83.57
2023-01-25T18:27:28.563Z,77.50
2023-01-25T18:31:03.092Z,79.38
2023-01-25T18:38:48.839Z,75.65
2023-01-25T18:43:40.226Z,79.07
2023-01-25T18:47:24.311Z,78.85